Havva Ana — V7RE3 — position and weather

sailwx.info

Track history (hours):
 
Tides and Currents Weather Stations Pressure Air Temp Water Temp Dewpoint Dewpoint Depression Visibility Wind Speed Wind Dir Waves Ship Positions

Havva Ana

Last reported at 2017-Dec-17 07:56 UTC. Time now 2017-Dec-17 10:16 UTC.
Position N 40°48' E 028°53'.

Length 123 m; draft 5.4 m.

Type: Tanker. MMSI: 538003488.

Date/timePositionNaut miles runAvg speedWind from/ knotsBaromVisibWave heightAir tempDewpointWater temp
2017-Dec-17 07:56N 40°48' E 028°53'224 8.7
2017-Dec-16 06:07N 37°54' E 025°51'311.1
2017-Dec-16 05:53N 37°52' E 025°51'811.5
2017-Dec-16 05:09N 37°43' E 025°52'311.6
2017-Dec-16 04:52N 37°40' E 025°53'411.6
2017-Dec-16 04:30N 37°36' E 025°53'611.3
2017-Dec-16 04:00N 37°30' E 025°54'510.5
2017-Dec-16 03:30N 37°26' E 025°58'510.7
2017-Dec-16 03:00N 37°23' E 026°04'510.7
2017-Dec-16 02:30N 37°20' E 026°09'510.7
2017-Dec-16 02:00N 37°16' E 026°14'510.7
2017-Dec-16 01:30N 37°13' E 026°19'510.4
2017-Dec-16 01:00N 37°09' E 026°24'510.3
2017-Dec-16 00:30N 37°06' E 026°29'510.6
2017-Dec-16 00:00N 37°02' E 026°34'611.3
2017-Dec-15 23:30N 36°57' E 026°37'611.6
2017-Dec-15 23:00N 36°52' E 026°40'611.3
2017-Dec-15 22:30N 36°47' E 026°43'610.9
2017-Dec-15 22:00N 36°42' E 026°45'510.7
2017-Dec-15 21:30N 36°37' E 026°48'610.9
2017-Dec-15 20:58N 36°32' E 026°51'  
2017-Dec-10 11:12N 36°25' E 026°53'2011.5
2017-Dec-10 09:26N 36°44' E 026°43'811.2
2017-Dec-10 08:46N 36°51' E 026°40'910.9
2017-Dec-10 07:57N 36°59' E 026°37'510.8
2017-Dec-10 07:29N 37°04' E 026°34'511.3
2017-Dec-10 07:00N 37°07' E 026°29'611.5
2017-Dec-10 06:30N 37°10' E 026°23'611.3
2017-Dec-10 06:00N 37°14' E 026°18'611.5
2017-Dec-10 05:30N 37°18' E 026°12'611.3
2017-Dec-10 05:00N 37°21' E 026°06'611.1
2017-Dec-10 04:30N 37°24' E 026°01'511.0
2017-Dec-10 04:00N 37°28' E 025°55'5 9.7
2017-Dec-10 03:30N 37°32' E 025°53'510.6
2017-Dec-10 03:00N 37°37' E 025°53'710.6
2017-Dec-10 02:22N 37°44' E 025°53'510.4
2017-Dec-10 01:51N 37°49' E 025°52'310.0
2017-Dec-10 01:30N 37°53' E 025°51'5 9.7
2017-Dec-10 00:57N 37°58' E 025°50'  
Track history (hours):
 
Tides and Currents Weather Stations Pressure Air Temp Water Temp Dewpoint Dewpoint Depression Visibility Wind Speed Wind Dir Waves Ship Positions

Havva Ana

Last reported at 2017-Dec-17 07:56 UTC. Time now 2017-Dec-17 10:16 UTC.
Position N 40°48' E 028°53'.

Length 123 m; draft 5.4 m.

Type: Tanker. MMSI: 538003488.

Date/timePositionNaut miles runAvg speedWind from/ knotsBaromVisibWave heightAir tempDewpointWater temp
2017-Dec-17 07:56N 40°48' E 028°53'224 8.7
2017-Dec-16 06:07N 37°54' E 025°51'311.1
2017-Dec-16 05:53N 37°52' E 025°51'811.5
2017-Dec-16 05:09N 37°43' E 025°52'311.6
2017-Dec-16 04:52N 37°40' E 025°53'411.6
2017-Dec-16 04:30N 37°36' E 025°53'611.3
2017-Dec-16 04:00N 37°30' E 025°54'510.5
2017-Dec-16 03:30N 37°26' E 025°58'510.7
2017-Dec-16 03:00N 37°23' E 026°04'510.7
2017-Dec-16 02:30N 37°20' E 026°09'510.7
2017-Dec-16 02:00N 37°16' E 026°14'510.7
2017-Dec-16 01:30N 37°13' E 026°19'510.4
2017-Dec-16 01:00N 37°09' E 026°24'510.3
2017-Dec-16 00:30N 37°06' E 026°29'510.6
2017-Dec-16 00:00N 37°02' E 026°34'611.3
2017-Dec-15 23:30N 36°57' E 026°37'611.6
2017-Dec-15 23:00N 36°52' E 026°40'611.3
2017-Dec-15 22:30N 36°47' E 026°43'610.9
2017-Dec-15 22:00N 36°42' E 026°45'510.7
2017-Dec-15 21:30N 36°37' E 026°48'610.9
2017-Dec-15 20:58N 36°32' E 026°51'  
2017-Dec-10 11:12N 36°25' E 026°53'2011.5
2017-Dec-10 09:26N 36°44' E 026°43'811.2
2017-Dec-10 08:46N 36°51' E 026°40'910.9
2017-Dec-10 07:57N 36°59' E 026°37'510.8
2017-Dec-10 07:29N 37°04' E 026°34'511.3
2017-Dec-10 07:00N 37°07' E 026°29'611.5
2017-Dec-10 06:30N 37°10' E 026°23'611.3
2017-Dec-10 06:00N 37°14' E 026°18'611.5
2017-Dec-10 05:30N 37°18' E 026°12'611.3
2017-Dec-10 05:00N 37°21' E 026°06'611.1
2017-Dec-10 04:30N 37°24' E 026°01'511.0
2017-Dec-10 04:00N 37°28' E 025°55'5 9.7
2017-Dec-10 03:30N 37°32' E 025°53'510.6
2017-Dec-10 03:00N 37°37' E 025°53'710.6
2017-Dec-10 02:22N 37°44' E 025°53'510.4
2017-Dec-10 01:51N 37°49' E 025°52'310.0
2017-Dec-10 01:30N 37°53' E 025°51'5 9.7
2017-Dec-10 00:57N 37°58' E 025°50'  

Dump ship's entire track history